createdAt,value
2022-11-25T00:00:11.615Z,96449.34
2022-11-25T00:03:08.498Z,96446.28
2022-11-25T00:06:16.764Z,96439.03
2022-11-25T00:09:13.712Z,96438.72
2022-11-25T00:12:10.561Z,96442.97
2022-11-25T00:15:07.869Z,96442.69
2022-11-25T00:18:04.762Z,96450.16
2022-11-25T00:21:11.571Z,96455.91
2022-11-25T00:24:08.881Z,96441.75
2022-11-25T00:27:05.729Z,96438.66
2022-11-25T00:30:02.632Z,96434.13
2022-11-25T00:32:59.466Z,96429.28
2022-11-25T00:35:56.438Z,96424.69
2022-11-25T00:38:59.370Z,96424.31
2022-11-25T00:42:31.320Z,96432.91
2022-11-25T00:45:28.340Z,96422.94
2022-11-25T00:48:25.429Z,96436.22
2022-11-25T00:51:22.261Z,96431.13
2022-11-25T00:54:19.117Z,96432.25
2022-11-25T00:57:18.440Z,96432.09
2022-11-25T01:00:15.554Z,96436.47
2022-11-25T01:03:12.398Z,96439.44
2022-11-25T01:06:11.177Z,96444.41
2022-11-25T01:09:09.166Z,96450.88
2022-11-25T01:12:06.333Z,96448.47
2022-11-25T01:15:03.248Z,96444.81
2022-11-25T01:18:00.120Z,96442.94
2022-11-25T01:21:15.914Z,96449.28
2022-11-25T01:24:15.153Z,96442.47
2022-11-25T01:27:11.972Z,96443.75
2022-11-25T01:30:09.897Z,96446.38
2022-11-25T01:33:06.726Z,96454.97
2022-11-25T01:36:06.894Z,96447.31
2022-11-25T01:39:04.662Z,96454.22
2022-11-25T01:42:02.206Z,96444.41
2022-11-25T01:45:36.946Z,96459.50
2022-11-25T01:48:55.649Z,96443.63
2022-11-25T01:52:21.825Z,96448.44
2022-11-25T01:55:27.059Z,96454.25
2022-11-25T01:58:37.129Z,96443.16
2022-11-25T02:01:34.295Z,96435.25
2022-11-25T02:04:35.669Z,96438.69
2022-11-25T02:07:44.309Z,96428.91
2022-11-25T02:10:42.707Z,96436.78
2022-11-25T02:13:40.508Z,96436.03
2022-11-25T02:16:37.453Z,96424.91
2022-11-25T02:20:15.777Z,96427.28
2022-11-25T02:23:37.941Z,96432.59
2022-11-25T02:26:34.978Z,96428.69
2022-11-25T02:29:33.712Z,96420.88
2022-11-25T02:32:30.652Z,96428.34
2022-11-25T02:35:34.700Z,96424.63
2022-11-25T02:39:01.766Z,96429.72
2022-11-25T02:42:00.283Z,96425.47
2022-11-25T02:44:57.137Z,96426.28
2022-11-25T02:47:54.002Z,96425.00
2022-11-25T02:50:51.048Z,96418.38
2022-11-25T02:53:48.352Z,96425.81
2022-11-25T02:56:45.341Z,96420.78
2022-11-25T02:59:42.175Z,96421.31
2022-11-25T03:02:39.733Z,96436.66
2022-11-25T03:05:36.993Z,96421.84
2022-11-25T03:08:34.055Z,96428.22
2022-11-25T03:11:49.713Z,96421.34
2022-11-25T03:14:47.683Z,96435.94
2022-11-25T03:17:44.938Z,96434.91
2022-11-25T03:20:41.788Z,96432.81
2022-11-25T03:23:38.642Z,96433.91
2022-11-25T03:26:35.472Z,96433.66
2022-11-25T03:29:32.388Z,96430.47
2022-11-25T03:32:29.231Z,96426.72
2022-11-25T03:35:26.369Z,96431.75
2022-11-25T03:38:23.228Z,96429.66
2022-11-25T03:41:20.085Z,96441.31
2022-11-25T03:44:17.292Z,96425.94
2022-11-25T03:47:14.163Z,96428.59
2022-11-25T03:50:14.815Z,96430.44
2022-11-25T03:53:11.660Z,96436.03
2022-11-25T03:56:08.782Z,96433.91
2022-11-25T03:59:05.676Z,96439.19
2022-11-25T04:02:03.042Z,96445.00
2022-11-25T04:05:00.016Z,96448.16
2022-11-25T04:07:58.336Z,96437.84
2022-11-25T04:10:55.362Z,96434.41
2022-11-25T04:13:52.191Z,96429.13
2022-11-25T04:16:49.175Z,96439.16
2022-11-25T04:19:46.144Z,96438.34
2022-11-25T04:22:43.092Z,96433.31
2022-11-25T04:25:40.440Z,96435.16
2022-11-25T04:28:37.304Z,96440.22
2022-11-25T04:31:34.135Z,96433.06
2022-11-25T04:34:30.970Z,96430.97
2022-11-25T04:37:27.816Z,96434.69
2022-11-25T04:40:25.098Z,96428.59
2022-11-25T04:43:22.099Z,96426.72
2022-11-25T04:46:25.056Z,96417.72
2022-11-25T04:49:21.955Z,96420.63
2022-11-25T04:52:18.879Z,96426.19
2022-11-25T04:55:16.265Z,96420.38
2022-11-25T04:58:13.495Z,96425.41
2022-11-25T05:01:10.416Z,96422.75
2022-11-25T05:04:07.303Z,96436.53
2022-11-25T05:07:04.210Z,96429.66
2022-11-25T05:10:01.148Z,96433.38
2022-11-25T05:12:58.042Z,96436.00
2022-11-25T05:15:58.173Z,96435.50
2022-11-25T05:18:57.882Z,96432.59
2022-11-25T05:21:54.760Z,96437.88
2022-11-25T05:24:51.844Z,96428.84
2022-11-25T05:27:48.741Z,96426.75
2022-11-25T05:30:45.665Z,96422.22
2022-11-25T05:33:42.548Z,96424.91
2022-11-25T05:36:39.378Z,96422.25
2022-11-25T05:39:36.326Z,96431.75
2022-11-25T05:42:33.261Z,96424.09
2022-11-25T05:45:30.112Z,96425.13
2022-11-25T05:48:26.963Z,96420.66
2022-11-25T05:51:25.632Z,96432.56
2022-11-25T05:54:22.514Z,96426.19
2022-11-25T05:57:19.414Z,96432.81
2022-11-25T06:00:16.557Z,96425.41
2022-11-25T06:03:13.655Z,96432.28
2022-11-25T06:06:11.387Z,96433.09
2022-11-25T06:09:08.249Z,96441.56
2022-11-25T06:12:05.247Z,96443.94
2022-11-25T06:15:02.574Z,96445.50
2022-11-25T06:17:59.649Z,96447.66
2022-11-25T06:20:59.906Z,96441.03
2022-11-25T06:23:56.737Z,96441.03
2022-11-25T06:26:53.641Z,96449.72
2022-11-25T06:29:50.476Z,96458.22
2022-11-25T06:32:47.591Z,96460.59
2022-11-25T06:35:44.625Z,96464.03
2022-11-25T06:38:41.493Z,96462.47
2022-11-25T06:41:38.668Z,96459.28
2022-11-25T06:44:35.778Z,96466.69
2022-11-25T06:47:32.908Z,96457.16
2022-11-25T06:50:29.762Z,96459.28
2022-11-25T06:53:27.593Z,96462.97
2022-11-25T06:56:27.703Z,96466.16
2022-11-25T06:59:24.764Z,96472.25
2022-11-25T07:02:21.671Z,96467.22
2022-11-25T07:05:18.568Z,96465.63
2022-11-25T07:08:15.433Z,96467.75
2022-11-25T07:11:26.251Z,96466.94
2022-11-25T07:14:23.050Z,96469.56
2022-11-25T07:17:19.937Z,96473.50
2022-11-25T07:20:17.368Z,96474.59
2022-11-25T07:23:14.581Z,96476.16
2022-11-25T07:26:21.768Z,96471.94
2022-11-25T07:32:36.832Z,96478.84
2022-11-25T07:35:34.972Z,96482.28
2022-11-25T07:38:33.444Z,96494.75
2022-11-25T07:41:30.754Z,96497.41
2022-11-25T07:44:28.132Z,96495.00
2022-11-25T07:47:25.474Z,96503.53
2022-11-25T07:50:22.315Z,96511.19
2022-11-25T07:53:19.727Z,96510.16
2022-11-25T07:56:17.624Z,96509.91
2022-11-25T07:59:23.387Z,96519.19
2022-11-25T08:02:20.283Z,96522.38
2022-11-25T08:05:17.448Z,96525.75
2022-11-25T08:08:15.084Z,96527.88
2022-11-25T08:11:20.248Z,96525.56
2022-11-25T08:14:18.018Z,96516.25
2022-11-25T08:17:14.865Z,96522.63
2022-11-25T08:20:12.199Z,96523.97
2022-11-25T08:23:09.071Z,96525.25
2022-11-25T08:26:13.265Z,96535.66
2022-11-25T08:29:17.355Z,96535.66
2022-11-25T08:32:14.265Z,96545.69
2022-11-25T08:35:12.403Z,96553.94
2022-11-25T08:38:16.313Z,96556.34
2022-11-25T08:41:21.185Z,96559.50
2022-11-25T08:44:18.224Z,96562.69
2022-11-25T08:47:15.079Z,96558.97
2022-11-25T08:50:14.949Z,96558.44
2022-11-25T08:53:11.787Z,96563.81
2022-11-25T08:56:09.097Z,96568.75
2022-11-25T08:59:06.853Z,96567.75
2022-11-25T09:02:04.824Z,96573.59
2022-11-25T09:05:02.039Z,96573.34
2022-11-25T09:07:58.893Z,96572.00
2022-11-25T09:10:55.957Z,96578.13
2022-11-25T09:13:53.220Z,96578.66
2022-11-25T09:16:50.285Z,96583.16
2022-11-25T09:19:47.199Z,96570.69
2022-11-25T09:22:44.094Z,96575.47
2022-11-25T09:25:41.024Z,96582.34
2022-11-25T09:28:37.887Z,96575.22
2022-11-25T09:31:34.927Z,96567.28
2022-11-25T09:34:31.909Z,96567.25
2022-11-25T09:37:28.786Z,96555.34
2022-11-25T09:41:15.551Z,96567.03
2022-11-25T09:45:04.578Z,96565.94
2022-11-25T09:48:32.219Z,96552.44
2022-11-25T09:51:49.982Z,96550.84
2022-11-25T09:55:22.815Z,96564.91
2022-11-25T09:58:56.021Z,96568.88
2022-11-25T10:02:03.692Z,96573.38
2022-11-25T10:05:16.684Z,96569.13
2022-11-25T10:08:20.486Z,96564.59
2022-11-25T10:11:24.960Z,96552.66
2022-11-25T10:14:53.214Z,96569.63
2022-11-25T10:18:00.192Z,96557.41
2022-11-25T10:20:57.100Z,96557.34
2022-11-25T10:23:54.171Z,96547.72
2022-11-25T10:27:01.293Z,96539.91
2022-11-25T10:30:16.407Z,96545.25
2022-11-25T10:33:21.964Z,96539.28
2022-11-25T10:36:26.822Z,96548.03
2022-11-25T10:39:32.476Z,96547.72
2022-11-25T10:42:29.619Z,96536.84
2022-11-25T10:45:40.690Z,96537.34
2022-11-25T10:49:01.559Z,96539.31
2022-11-25T10:51:58.903Z,96527.97
2022-11-25T10:55:26.037Z,96528.19
2022-11-25T10:58:42.369Z,96533.56
2022-11-25T11:01:39.289Z,96529.16
2022-11-25T11:04:48.662Z,96528.28
2022-11-25T11:07:47.031Z,96537.22
2022-11-25T11:10:44.529Z,96520.78
2022-11-25T11:13:42.172Z,96531.81
2022-11-25T11:16:45.396Z,96525.00
2022-11-25T11:19:42.353Z,96522.25
2022-11-25T11:22:49.549Z,96530.88
2022-11-25T11:25:56.375Z,96531.53
2022-11-25T11:29:15.496Z,96536.16
2022-11-25T11:32:30.898Z,96530.31
2022-11-25T11:35:29.961Z,96524.13
2022-11-25T11:38:44.337Z,96529.56
2022-11-25T11:42:21.249Z,96532.69
2022-11-25T11:46:08.139Z,96527.06
2022-11-25T11:49:45.811Z,96527.06
2022-11-25T11:53:12.187Z,96515.16
2022-11-25T11:56:35.398Z,96523.03
2022-11-25T11:59:52.612Z,96523.91
2022-11-25T12:03:15.749Z,96518.75
2022-11-25T12:06:13.799Z,96525.69
2022-11-25T12:09:20.308Z,96523.03
2022-11-25T12:12:19.563Z,96529.00
2022-11-25T12:15:37.800Z,96541.34
2022-11-25T12:18:53.328Z,96530.56
2022-11-25T12:21:58.705Z,96531.22
2022-11-25T12:25:19.225Z,96518.41
2022-11-25T12:28:20.642Z,96528.97
2022-11-25T12:31:34.588Z,96532.00
2022-11-25T12:34:52.704Z,96530.38
2022-11-25T12:38:04.897Z,96540.78
2022-11-25T12:41:32.344Z,96541.28
2022-11-25T12:44:59.517Z,96557.81
2022-11-25T12:47:57.980Z,96552.00
2022-11-25T12:51:10.337Z,96559.72
2022-11-25T12:54:33.646Z,96563.13
2022-11-25T12:58:19.887Z,96580.78
2022-11-25T13:01:39.458Z,96583.31
2022-11-25T13:05:13.087Z,96570.66
2022-11-25T13:08:43.718Z,96568.69
2022-11-25T13:12:13.485Z,96567.38
2022-11-25T13:15:22.208Z,96576.72
2022-11-25T13:18:25.036Z,96580.69
2022-11-25T13:21:24.181Z,96586.34
2022-11-25T13:24:38.976Z,96583.00
2022-11-25T13:27:42.170Z,96595.78
2022-11-25T13:30:39.941Z,96597.41
2022-11-25T13:33:45.555Z,96604.56
2022-11-25T13:36:53.529Z,96599.25
2022-11-25T13:40:10.321Z,96610.19
2022-11-25T13:43:22.186Z,96616.31
2022-11-25T13:46:47.137Z,96624.00
2022-11-25T13:49:52.517Z,96630.66
2022-11-25T13:53:03.502Z,96637.56
2022-11-25T13:56:37.116Z,96630.13
2022-11-25T13:59:50.861Z,96634.66
2022-11-25T14:02:49.813Z,96641.31
2022-11-25T14:06:00.640Z,96645.56
2022-11-25T14:09:27.741Z,96652.47
2022-11-25T14:13:06.246Z,96647.16
2022-11-25T14:16:40.617Z,96651.41
2022-11-25T14:20:15.624Z,96665.22
2022-11-25T14:24:20.954Z,96654.31
2022-11-25T14:27:36.992Z,96654.84
2022-11-25T14:30:36.379Z,96658.31
2022-11-25T14:33:54.130Z,96662.03
2022-11-25T14:37:00.008Z,96664.94
2022-11-25T14:40:14.167Z,96673.44
2022-11-25T14:43:48.020Z,96681.13
2022-11-25T14:46:59.237Z,96688.59
2022-11-25T14:53:18.475Z,96698.38
2022-11-25T14:56:27.035Z,96697.59
2022-11-25T14:59:23.932Z,96709.78
2022-11-25T15:02:34.959Z,96705.03
2022-11-25T15:05:38.013Z,96705.31
2022-11-25T15:08:41.731Z,96709.50
2022-11-25T15:11:38.972Z,96712.97
2022-11-25T15:14:41.615Z,96710.84
2022-11-25T15:17:38.640Z,96708.97
2022-11-25T15:20:35.846Z,96711.91
2022-11-25T15:23:37.798Z,96716.91
2022-11-25T15:26:36.335Z,96716.91
2022-11-25T15:29:42.263Z,96725.69
2022-11-25T15:32:39.273Z,96732.56
2022-11-25T15:35:36.197Z,96738.41
2022-11-25T15:38:44.556Z,96745.06
2022-11-25T15:41:45.390Z,96745.56
2022-11-25T15:44:56.376Z,96753.03
2022-11-25T15:47:53.529Z,96762.81
2022-11-25T15:50:50.680Z,96758.56
2022-11-25T15:53:55.012Z,96762.03
2022-11-25T15:56:57.525Z,96759.63
2022-11-25T15:59:54.728Z,96763.59
2022-11-25T16:02:55.610Z,96769.41
2022-11-25T16:05:57.266Z,96777.41
2022-11-25T16:09:00.679Z,96769.47
2022-11-25T16:12:06.700Z,96779.53
2022-11-25T16:15:03.705Z,96785.09
2022-11-25T16:18:17.907Z,96778.78
2022-11-25T16:21:30.552Z,96786.41
2022-11-25T16:24:41.846Z,96773.47
2022-11-25T16:27:39.038Z,96776.59
2022-11-25T16:30:38.531Z,96780.53
2022-11-25T16:33:35.459Z,96791.44
2022-11-25T16:36:32.309Z,96794.34
2022-11-25T16:39:29.247Z,96790.41
2022-11-25T16:42:26.121Z,96791.22
2022-11-25T16:45:28.185Z,96796.25
2022-11-25T16:48:25.212Z,96792.28
2022-11-25T16:51:25.443Z,96796.22
2022-11-25T16:54:23.319Z,96795.75
2022-11-25T16:57:21.985Z,96808.97
2022-11-25T17:00:19.234Z,96798.09
2022-11-25T17:03:16.269Z,96803.91
2022-11-25T17:06:30.440Z,96815.34
2022-11-25T17:09:27.333Z,96807.38
2022-11-25T17:12:31.839Z,96821.69
2022-11-25T17:15:34.319Z,96826.19
2022-11-25T17:18:31.312Z,96827.56
2022-11-25T17:21:28.948Z,96833.69
2022-11-25T17:24:27.173Z,96839.25
2022-11-25T17:27:31.145Z,96829.97
2022-11-25T17:30:28.689Z,96837.72
2022-11-25T17:33:25.569Z,96851.25
2022-11-25T17:36:22.885Z,96850.16
2022-11-25T17:39:19.764Z,96857.88
2022-11-25T17:42:32.212Z,96857.31
2022-11-25T17:45:29.567Z,96857.28
2022-11-25T17:48:31.985Z,96874.78
2022-11-25T17:51:28.849Z,96881.84
2022-11-25T17:54:25.718Z,96893.25
2022-11-25T17:57:23.308Z,96895.91
2022-11-25T18:00:22.246Z,96892.75
2022-11-25T18:03:19.105Z,96896.69
2022-11-25T18:06:15.942Z,96907.56
2022-11-25T18:09:12.896Z,96902.69
2022-11-25T18:12:28.483Z,96908.13
2022-11-25T18:15:30.426Z,96918.50
2022-11-25T18:18:27.294Z,96927.47
2022-11-25T18:21:26.264Z,96932.00
2022-11-25T18:24:23.467Z,96929.91
2022-11-25T18:27:27.411Z,96931.25
2022-11-25T18:30:28.389Z,96934.22
2022-11-25T18:33:25.396Z,96926.00
2022-11-25T18:36:22.237Z,96938.72
2022-11-25T18:39:19.860Z,96938.47
2022-11-25T18:42:27.500Z,96939.03
2022-11-25T18:45:28.213Z,96947.75
2022-11-25T18:48:26.236Z,96944.50
2022-11-25T18:51:23.073Z,96947.47
2022-11-25T18:54:19.987Z,96959.41
2022-11-25T18:57:16.892Z,96953.84
2022-11-25T19:00:32.371Z,96961.81
2022-11-25T19:03:30.100Z,96970.56
2022-11-25T19:06:30.120Z,96975.59
2022-11-25T19:09:27.165Z,96972.16
2022-11-25T19:12:24.948Z,96970.56
2022-11-25T19:15:25.033Z,96976.69
2022-11-25T19:18:27.285Z,96979.06
2022-11-25T19:21:24.283Z,96987.81
2022-11-25T19:24:21.412Z,96993.63
2022-11-25T19:27:24.218Z,97000.28
2022-11-25T19:30:24.326Z,97002.88
2022-11-25T19:33:29.791Z,97008.44
2022-11-25T19:36:30.805Z,97004.91
2022-11-25T19:39:28.352Z,97021.31
2022-11-25T19:42:25.777Z,97016.63
2022-11-25T19:45:22.792Z,97028.63
2022-11-25T19:48:21.717Z,97034.97
2022-11-25T19:51:20.641Z,97032.13
2022-11-25T19:54:19.307Z,97039.53
2022-11-25T19:57:22.483Z,97045.66
2022-11-25T20:00:22.790Z,97037.69
2022-11-25T20:03:23.563Z,97042.94
2022-11-25T20:06:20.739Z,97050.91
2022-11-25T20:09:17.655Z,97062.03
2022-11-25T20:12:22.024Z,97066.63
2022-11-25T20:15:19.811Z,97059.72
2022-11-25T20:18:22.008Z,97071.16
2022-11-25T20:21:32.379Z,97072.66
2022-11-25T20:24:29.589Z,97088.25
2022-11-25T20:27:28.296Z,97080.50
2022-11-25T20:30:29.058Z,97094.22
2022-11-25T20:33:26.494Z,97093.72
2022-11-25T20:36:30.657Z,97089.75
2022-11-25T20:39:27.533Z,97099.81
2022-11-25T20:42:25.948Z,97104.56
2022-11-25T20:45:23.452Z,97100.31
2022-11-25T20:48:20.504Z,97103.53
2022-11-25T20:51:20.590Z,97116.53
2022-11-25T20:54:17.759Z,97115.19
2022-11-25T20:57:14.900Z,97125.78
2022-11-25T21:00:38.171Z,97127.66
2022-11-25T21:03:35.041Z,97130.34
2022-11-25T21:06:41.345Z,97130.09
2022-11-25T21:09:38.415Z,97133.75
2022-11-25T21:12:35.289Z,97139.56
2022-11-25T21:15:32.208Z,97139.59
2022-11-25T21:18:29.103Z,97142.25
2022-11-25T21:21:39.601Z,97149.81
2022-11-25T21:24:41.904Z,97154.25
2022-11-25T21:27:39.284Z,97150.53
2022-11-25T21:30:36.108Z,97145.22
2022-11-25T21:33:32.943Z,97158.66
2022-11-25T21:36:31.586Z,97165.13
2022-11-25T21:39:32.352Z,97166.44
2022-11-25T21:42:30.095Z,97165.06
2022-11-25T21:45:26.976Z,97167.78
2022-11-25T21:48:27.116Z,97174.94
2022-11-25T21:51:26.847Z,97183.44
2022-11-25T21:54:23.703Z,97190.50
2022-11-25T21:57:27.675Z,97187.66
2022-11-25T22:00:26.002Z,97190.31
2022-11-25T22:03:25.254Z,97194.31
2022-11-25T22:06:25.362Z,97204.91
2022-11-25T22:09:22.224Z,97208.63
2022-11-25T22:12:30.290Z,97202.78
2022-11-25T22:15:27.172Z,97211.03
2022-11-25T22:18:31.102Z,97218.91
2022-11-25T22:21:27.972Z,97221.94
2022-11-25T22:24:25.004Z,97223.75
2022-11-25T22:27:25.916Z,97224.22
2022-11-25T22:30:24.187Z,97219.72
2022-11-25T22:33:28.789Z,97217.75
2022-11-25T22:36:37.572Z,97224.28
2022-11-25T22:39:34.435Z,97216.63
2022-11-25T22:42:32.810Z,97228.78
2022-11-25T22:45:34.362Z,97247.28
2022-11-25T22:48:35.237Z,97245.94
2022-11-25T22:51:32.020Z,97235.63
2022-11-25T22:54:28.889Z,97243.97
2022-11-25T22:57:25.784Z,97243.84
2022-11-25T23:00:25.399Z,97249.56
2022-11-25T23:03:30.028Z,97245.44
2022-11-25T23:06:27.141Z,97251.78
2022-11-25T23:09:24.206Z,97256.81
2022-11-25T23:12:21.054Z,97250.38
2022-11-25T23:15:22.150Z,97256.63
2022-11-25T23:18:40.821Z,97255.75
2022-11-25T23:21:38.008Z,97259.16
2022-11-25T23:24:35.079Z,97263.97
2022-11-25T23:27:32.085Z,97265.44
2022-11-25T23:30:29.584Z,97255.81
2022-11-25T23:33:50.044Z,97256.19
2022-11-25T23:36:49.333Z,97256.13
2022-11-25T23:39:51.428Z,97257.84
2022-11-25T23:42:48.927Z,97267.75
2022-11-25T23:45:54.922Z,97272.75
2022-11-25T23:48:58.584Z,97277.56
2022-11-25T23:51:59.558Z,97280.28
2022-11-25T23:54:58.282Z,97284.50
2022-11-25T23:57:55.579Z,97276.59
